Airfield :
LOGIN :

Register | Disclaimer

   EN    FR    IT 

 










Legend :    VFR   Marginal VFR   IFR   Intensive IFR   Very Intensive IFR
Visi :
Ceiling :
>= 8 km
>= 3000ft
5 to 8 km
1000 to 3000 ft
1500m to 5 km
500 to 1000 ft
800 to 1500m
200 to 500 ft
< 800m
< 200 ft
Symbols :   Thunderstorms  Fog  Heavy snow  Heavy precipitations  Wind > 20 kt
SIGMETs :     Misc.  Thunderstorms  Icing  Turbulence  Mountain Waves  Volcanic Ashes






- Airport Elevation : 9 ft
- IATA code : MIR


DTMB - Habib Bourguliba Int. Monastir

CURRENT METAR :
  • 280500Z 28008KT 8000 SCT020 SCT033 11/10 Q1006

EXPIRED METARs :
  • 280430Z 32008KT 8000 SCT020 SCT033 12/10 Q1006
  • 280400Z 31007KT 8000 SCT020 SCT033 12/11 Q1006
  • 280330Z 30007KT 8000 SCT020 SCT033 12/11 Q1006
  • 280300Z 29007KT 8000 SCT020 SCT033 12/11 Q1006
  • 280230Z 31007KT 8000 SCT020 SCT033 12/11 Q1007
  • 280200Z 33007KT 8000 SCT020 SCT033 12/11 Q1007
  • 280130Z 34009KT 8000 SCT020 SCT033 12/11 Q1007
  • 280100Z 36011KT 320V020 8000 FEW026 SCT040 12/12 Q1008
  • 280030Z 30008KT 8000 FEW026 SCT040 12/11 Q1008

TAF TAF DTMB
Valid from the 28 at 00:00 until the 29 at 00:00 UTC


272300Z 2800/2824 28005KT 8000 -RA FEW026
TEMPO 2801/2806 4000 SHRA SCT023TCU FEW026CB
BECMG 2806/2808 27015KT



MET'MAP, your aeronautical weather chart ! - Copyright ORBIFLY December 2007 - Disclaimer

ORBIFLY MET'MAP TEAM :

Programming & Development : Alexandra Zaïnal
Original concept : Baudouin d'Aumeries
Technical & hardware support : Manuel Goepfert
Assistance : Marc-Olivier Méhu




SOURCES & CREDITS :

   NOAA